sensor_id;sensor_type;location;lat;lon;timestamp;pressure;altitude;pressure_sealevel;temperature;humidity
30708;BME280;17458;48.958;8.284;2023-04-01T00:01:07;99004.50;;;12.46;67.84
30708;BME280;17458;48.958;8.284;2023-04-01T00:03:52;98995.75;;;12.11;68.75
30708;BME280;17458;48.958;8.284;2023-04-01T00:06:37;99002.16;;;12.19;68.73
30708;BME280;17458;48.958;8.284;2023-04-01T00:09:21;99004.03;;;12.24;68.68
30708;BME280;17458;48.958;8.284;2023-04-01T00:12:05;99002.94;;;12.15;68.45
30708;BME280;17458;48.958;8.284;2023-04-01T00:14:49;98996.72;;;12.14;69.12
30708;BME280;17458;48.958;8.284;2023-04-01T00:17:34;98983.13;;;12.00;69.28
30708;BME280;17458;48.958;8.284;2023-04-01T00:20:19;98987.91;;;12.17;69.04
30708;BME280;17458;48.958;8.284;2023-04-01T00:23:03;99005.59;;;12.15;69.23
30708;BME280;17458;48.958;8.284;2023-04-01T00:25:49;98996.16;;;12.29;68.79
30708;BME280;17458;48.958;8.284;2023-04-01T00:28:33;98988.53;;;12.03;69.57
30708;BME280;17458;48.958;8.284;2023-04-01T00:31:19;98992.59;;;12.28;68.66
30708;BME280;17458;48.958;8.284;2023-04-01T00:34:03;98993.22;;;12.15;68.88
30708;BME280;17458;48.958;8.284;2023-04-01T00:36:47;98983.53;;;12.19;68.52
30708;BME280;17458;48.958;8.284;2023-04-01T00:39:33;98991.66;;;12.26;68.31
30708;BME280;17458;48.958;8.284;2023-04-01T00:42:18;98995.16;;;12.24;68.20
30708;BME280;17458;48.958;8.284;2023-04-01T00:45:32;98990.72;;;12.24;68.53
30708;BME280;17458;48.958;8.284;2023-04-01T00:48:18;98989.44;;;12.46;67.96
30708;BME280;17458;48.958;8.284;2023-04-01T00:51:11;98998.09;;;12.37;68.53
30708;BME280;17458;48.958;8.284;2023-04-01T00:53:59;98980.09;;;12.24;68.74
30708;BME280;17458;48.958;8.284;2023-04-01T00:56:51;98989.22;;;12.37;67.67
30708;BME280;17458;48.958;8.284;2023-04-01T00:59:46;98997.41;;;12.46;67.69
30708;BME280;17458;48.958;8.284;2023-04-01T01:02:32;98989.34;;;12.41;67.99
30708;BME280;17458;48.958;8.284;2023-04-01T01:05:17;98981.75;;;12.18;68.71
30708;BME280;17458;48.958;8.284;2023-04-01T01:08:28;98976.84;;;12.39;68.20
30708;BME280;17458;48.958;8.284;2023-04-01T01:11:19;98973.97;;;12.28;68.24
30708;BME280;17458;48.958;8.284;2023-04-01T01:14:25;98978.41;;;12.28;68.29
30708;BME280;17458;48.958;8.284;2023-04-01T01:17:49;98979.22;;;12.25;68.69
30708;BME280;17458;48.958;8.284;2023-04-01T01:21:07;98974.19;;;12.39;68.66
30708;BME280;17458;48.958;8.284;2023-04-01T01:24:19;98979.53;;;12.40;68.53
30708;BME280;17458;48.958;8.284;2023-04-01T01:27:12;98972.81;;;12.58;68.50
30708;BME280;17458;48.958;8.284;2023-04-01T01:30:22;98976.78;;;12.36;68.52
30708;BME280;17458;48.958;8.284;2023-04-01T01:35:58;98965.50;;;12.48;68.46
30708;BME280;17458;48.958;8.284;2023-04-01T01:38:45;98973.03;;;12.26;68.73
30708;BME280;17458;48.958;8.284;2023-04-01T01:41:32;98975.28;;;12.08;69.17
30708;BME280;17458;48.958;8.284;2023-04-01T01:44:18;98965.69;;;12.15;69.06
30708;BME280;17458;48.958;8.284;2023-04-01T01:47:05;98972.94;;;12.22;68.56
30708;BME280;17458;48.958;8.284;2023-04-01T01:49:51;98967.47;;;12.14;68.35
30708;BME280;17458;48.958;8.284;2023-04-01T01:52:36;98954.56;;;11.92;68.03
30708;BME280;17458;48.958;8.284;2023-04-01T01:55:28;98950.59;;;12.14;68.86
30708;BME280;17458;48.958;8.284;2023-04-01T02:01:10;98957.41;;;12.01;69.27
30708;BME280;17458;48.958;8.284;2023-04-01T02:03:58;98948.09;;;11.81;69.00
30708;BME280;17458;48.958;8.284;2023-04-01T02:06:53;98961.75;;;11.97;68.90
30708;BME280;17458;48.958;8.284;2023-04-01T02:09:39;98957.63;;;11.72;68.75
30708;BME280;17458;48.958;8.284;2023-04-01T02:12:26;98949.94;;;11.47;68.82
30708;BME280;17458;48.958;8.284;2023-04-01T02:15:13;98940.47;;;11.97;67.98
30708;BME280;17458;48.958;8.284;2023-04-01T02:17:59;98953.25;;;11.75;67.86
30708;BME280;17458;48.958;8.284;2023-04-01T02:20:44;98943.31;;;12.05;66.86
30708;BME280;17458;48.958;8.284;2023-04-01T02:23:29;98950.47;;;11.70;67.47
30708;BME280;17458;48.958;8.284;2023-04-01T02:26:14;98957.81;;;11.43;68.43
30708;BME280;17458;48.958;8.284;2023-04-01T02:29:01;98954.94;;;11.71;67.68
30708;BME280;17458;48.958;8.284;2023-04-01T02:31:46;98959.78;;;11.87;67.40
30708;BME280;17458;48.958;8.284;2023-04-01T02:34:30;98962.88;;;11.69;67.93
30708;BME280;17458;48.958;8.284;2023-04-01T02:37:15;98966.88;;;11.51;68.55
30708;BME280;17458;48.958;8.284;2023-04-01T02:40:00;98951.78;;;11.14;69.40
30708;BME280;17458;48.958;8.284;2023-04-01T02:42:45;98949.94;;;11.47;68.58
30708;BME280;17458;48.958;8.284;2023-04-01T02:45:29;98945.81;;;11.22;69.06
30708;BME280;17458;48.958;8.284;2023-04-01T02:48:14;98957.22;;;11.56;68.56
30708;BME280;17458;48.958;8.284;2023-04-01T02:50:59;98952.00;;;11.59;68.46
30708;BME280;17458;48.958;8.284;2023-04-01T02:53:43;98948.88;;;11.41;68.53
30708;BME280;17458;48.958;8.284;2023-04-01T02:56:27;98957.16;;;11.53;68.65
30708;BME280;17458;48.958;8.284;2023-04-01T02:59:11;98962.38;;;11.48;67.86
30708;BME280;17458;48.958;8.284;2023-04-01T03:01:55;98961.22;;;11.75;67.93
30708;BME280;17458;48.958;8.284;2023-04-01T03:04:40;98965.13;;;11.53;68.67
30708;BME280;17458;48.958;8.284;2023-04-01T03:07:24;98957.97;;;11.49;68.77
30708;BME280;17458;48.958;8.284;2023-04-01T03:10:08;98960.16;;;11.68;67.90
30708;BME280;17458;48.958;8.284;2023-04-01T03:12:53;98961.06;;;11.31;68.30
30708;BME280;17458;48.958;8.284;2023-04-01T03:15:37;98954.81;;;11.66;67.53
30708;BME280;17458;48.958;8.284;2023-04-01T03:18:22;98962.56;;;11.93;66.82
30708;BME280;17458;48.958;8.284;2023-04-01T03:21:20;98960.47;;;11.80;67.30
30708;BME280;17458;48.958;8.284;2023-04-01T03:24:05;98973.69;;;11.76;67.35
30708;BME280;17458;48.958;8.284;2023-04-01T03:26:49;98960.22;;;11.69;66.93
30708;BME280;17458;48.958;8.284;2023-04-01T03:29:34;98967.41;;;11.73;66.91
30708;BME280;17458;48.958;8.284;2023-04-01T03:32:18;98961.09;;;12.06;66.12
30708;BME280;17458;48.958;8.284;2023-04-01T03:35:03;98967.41;;;12.13;65.75
30708;BME280;17458;48.958;8.284;2023-04-01T03:37:50;98973.13;;;11.89;66.40
30708;BME280;17458;48.958;8.284;2023-04-01T03:40:35;98966.78;;;11.84;66.20
30708;BME280;17458;48.958;8.284;2023-04-01T03:43:22;98958.69;;;11.78;66.20
30708;BME280;17458;48.958;8.284;2023-04-01T03:46:06;98956.22;;;11.87;65.90
30708;BME280;17458;48.958;8.284;2023-04-01T03:48:53;98954.06;;;11.72;66.71
30708;BME280;17458;48.958;8.284;2023-04-01T03:51:38;98949.69;;;11.74;66.55
30708;BME280;17458;48.958;8.284;2023-04-01T03:54:22;98949.81;;;12.18;65.59
30708;BME280;17458;48.958;8.284;2023-04-01T03:57:06;98946.88;;;12.05;65.57
30708;BME280;17458;48.958;8.284;2023-04-01T03:59:51;98951.75;;;11.86;65.91
30708;BME280;17458;48.958;8.284;2023-04-01T04:02:35;98954.47;;;11.87;66.31
30708;BME280;17458;48.958;8.284;2023-04-01T04:05:19;98948.38;;;11.93;66.43
30708;BME280;17458;48.958;8.284;2023-04-01T04:08:03;98952.06;;;11.99;66.44
30708;BME280;17458;48.958;8.284;2023-04-01T04:10:54;98957.81;;;11.79;67.23
30708;BME280;17458;48.958;8.284;2023-04-01T04:13:39;98950.16;;;11.94;66.79
30708;BME280;17458;48.958;8.284;2023-04-01T04:16:23;98945.09;;;12.04;66.15
30708;BME280;17458;48.958;8.284;2023-04-01T04:19:14;98941.72;;;11.74;66.95
30708;BME280;17458;48.958;8.284;2023-04-01T04:21:59;98939.31;;;11.85;66.89
30708;BME280;17458;48.958;8.284;2023-04-01T04:24:46;98947.72;;;12.03;66.32
30708;BME280;17458;48.958;8.284;2023-04-01T04:27:31;98939.44;;;11.89;66.53
30708;BME280;17458;48.958;8.284;2023-04-01T04:30:23;98939.22;;;12.21;66.20
30708;BME280;17458;48.958;8.284;2023-04-01T04:33:07;98944.50;;;12.19;65.98
30708;BME280;17458;48.958;8.284;2023-04-01T04:35:56;98927.84;;;11.87;67.08
30708;BME280;17458;48.958;8.284;2023-04-01T04:38:41;98933.66;;;12.10;66.27
30708;BME280;17458;48.958;8.284;2023-04-01T04:41:25;98926.31;;;11.98;66.95
30708;BME280;17458;48.958;8.284;2023-04-01T04:44:10;98924.41;;;11.91;66.73
30708;BME280;17458;48.958;8.284;2023-04-01T04:46:55;98909.41;;;11.57;67.69
30708;BME280;17458;48.958;8.284;2023-04-01T04:49:39;98923.16;;;11.76;67.43
30708;BME280;17458;48.958;8.284;2023-04-01T04:52:26;98919.13;;;11.93;67.04
30708;BME280;17458;48.958;8.284;2023-04-01T04:55:10;98916.19;;;11.82;67.18
30708;BME280;17458;48.958;8.284;2023-04-01T04:57:56;98910.88;;;11.82;67.04
30708;BME280;17458;48.958;8.284;2023-04-01T05:00:40;98918.44;;;12.03;66.62
30708;BME280;17458;48.958;8.284;2023-04-01T05:03:28;98913.28;;;11.71;67.39
30708;BME280;17458;48.958;8.284;2023-04-01T05:06:13;98908.63;;;12.00;66.85
30708;BME280;17458;48.958;8.284;2023-04-01T05:08:57;98915.00;;;12.08;66.62
30708;BME280;17458;48.958;8.284;2023-04-01T05:11:42;98909.38;;;11.95;66.71
30708;BME280;17458;48.958;8.284;2023-04-01T05:14:25;98912.34;;;11.69;67.28
30708;BME280;17458;48.958;8.284;2023-04-01T05:17:21;98913.84;;;11.57;67.76
30708;BME280;17458;48.958;8.284;2023-04-01T05:20:06;98908.88;;;11.72;67.33
30708;BME280;17458;48.958;8.284;2023-04-01T05:22:55;98916.25;;;11.84;66.67
30708;BME280;17458;48.958;8.284;2023-04-01T05:25:39;98907.88;;;11.68;66.79
30708;BME280;17458;48.958;8.284;2023-04-01T05:28:27;98914.47;;;11.45;67.67
30708;BME280;17458;48.958;8.284;2023-04-01T05:31:11;98921.09;;;11.64;68.50
30708;BME280;17458;48.958;8.284;2023-04-01T05:33:57;98918.75;;;11.40;68.81
30708;BME280;17458;48.958;8.284;2023-04-01T05:36:43;98927.88;;;11.50;69.97
30708;BME280;17458;48.958;8.284;2023-04-01T05:39:31;98919.56;;;11.37;70.37
30708;BME280;17458;48.958;8.284;2023-04-01T05:42:18;98915.47;;;11.50;71.10
30708;BME280;17458;48.958;8.284;2023-04-01T05:45:06;98922.06;;;11.30;71.56
30708;BME280;17458;48.958;8.284;2023-04-01T05:48:09;98916.28;;;11.12;72.79
30708;BME280;17458;48.958;8.284;2023-04-01T05:50:56;98911.75;;;11.06;74.11
30708;BME280;17458;48.958;8.284;2023-04-01T05:53:41;98922.41;;;11.08;74.42
30708;BME280;17458;48.958;8.284;2023-04-01T05:56:25;98919.25;;;10.88;76.05
30708;BME280;17458;48.958;8.284;2023-04-01T05:59:11;98920.94;;;10.86;76.06
30708;BME280;17458;48.958;8.284;2023-04-01T06:01:59;98913.13;;;10.90;76.22
30708;BME280;17458;48.958;8.284;2023-04-01T06:04:43;98914.78;;;10.87;76.56
30708;BME280;17458;48.958;8.284;2023-04-01T06:07:28;98911.44;;;10.95;76.26
30708;BME280;17458;48.958;8.284;2023-04-01T06:13:21;98921.91;;;11.24;75.29
30708;BME280;17458;48.958;8.284;2023-04-01T06:16:20;98931.63;;;11.23;74.72
30708;BME280;17458;48.958;8.284;2023-04-01T06:25:18;98917.06;;;11.06;75.55
30708;BME280;17458;48.958;8.284;2023-04-01T06:34:21;98931.66;;;11.25;76.99
30708;BME280;17458;48.958;8.284;2023-04-01T06:37:34;98928.97;;;11.23;76.87
30708;BME280;17458;48.958;8.284;2023-04-01T06:43:50;98930.34;;;11.06;77.32
30708;BME280;17458;48.958;8.284;2023-04-01T06:47:00;98934.59;;;10.99;77.50
30708;BME280;17458;48.958;8.284;2023-04-01T06:50:15;98928.84;;;11.17;77.58
30708;BME280;17458;48.958;8.284;2023-04-01T06:53:50;98938.13;;;11.34;76.73
30708;BME280;17458;48.958;8.284;2023-04-01T06:57:09;98937.72;;;11.18;77.90
30708;BME280;17458;48.958;8.284;2023-04-01T07:00:00;98949.53;;;11.30;78.42
30708;BME280;17458;48.958;8.284;2023-04-01T07:03:05;98938.44;;;11.12;78.75
30708;BME280;17458;48.958;8.284;2023-04-01T07:05:51;98937.00;;;11.25;77.79
30708;BME280;17458;48.958;8.284;2023-04-01T07:08:39;98946.63;;;11.20;78.81
30708;BME280;17458;48.958;8.284;2023-04-01T07:11:29;98946.88;;;11.30;79.60
30708;BME280;17458;48.958;8.284;2023-04-01T07:14:39;98948.16;;;11.12;79.35
30708;BME280;17458;48.958;8.284;2023-04-01T07:17:31;98945.25;;;11.37;79.19
30708;BME280;17458;48.958;8.284;2023-04-01T07:20:25;98948.28;;;11.51;78.52
30708;BME280;17458;48.958;8.284;2023-04-01T07:23:19;98952.03;;;11.23;80.78
30708;BME280;17458;48.958;8.284;2023-04-01T07:26:31;98960.34;;;11.02;81.09
30708;BME280;17458;48.958;8.284;2023-04-01T07:29:18;98956.03;;;11.07;80.84
30708;BME280;17458;48.958;8.284;2023-04-01T07:32:24;98968.78;;;11.20;80.80
30708;BME280;17458;48.958;8.284;2023-04-01T07:45:31;98957.59;;;11.33;81.83
30708;BME280;17458;48.958;8.284;2023-04-01T07:48:46;98951.19;;;10.91;84.08
30708;BME280;17458;48.958;8.284;2023-04-01T07:51:33;98951.78;;;11.50;80.92
30708;BME280;17458;48.958;8.284;2023-04-01T07:54:26;98954.22;;;11.41;81.92
30708;BME280;17458;48.958;8.284;2023-04-01T07:57:24;98953.19;;;10.99;82.35
30708;BME280;17458;48.958;8.284;2023-04-01T08:06:16;98956.00;;;11.06;83.57
30708;BME280;17458;48.958;8.284;2023-04-01T08:13:03;98956.22;;;12.27;80.23
30708;BME280;17458;48.958;8.284;2023-04-01T08:16:25;98947.69;;;12.01;80.00
30708;BME280;17458;48.958;8.284;2023-04-01T08:22:41;98973.19;;;11.93;80.00
30708;BME280;17458;48.958;8.284;2023-04-01T08:25:47;98980.84;;;11.80;80.86
30708;BME280;17458;48.958;8.284;2023-04-01T08:28:37;98975.63;;;12.23;78.91
30708;BME280;17458;48.958;8.284;2023-04-01T08:31:56;98988.41;;;11.99;80.01
30708;BME280;17458;48.958;8.284;2023-04-01T08:34:46;98991.84;;;11.95;80.67
30708;BME280;17458;48.958;8.284;2023-04-01T08:37:41;98987.94;;;11.79;81.41
30708;BME280;17458;48.958;8.284;2023-04-01T08:50:28;98988.22;;;11.55;82.69
30708;BME280;17458;48.958;8.284;2023-04-01T09:00:32;98996.13;;;11.51;81.87
30708;BME280;17458;48.958;8.284;2023-04-01T09:06:38;98993.84;;;11.67;82.15
30708;BME280;17458;48.958;8.284;2023-04-01T09:22:05;99014.25;;;12.04;81.97
30708;BME280;17458;48.958;8.284;2023-04-01T09:28:26;99003.16;;;11.85;81.71
30708;BME280;17458;48.958;8.284;2023-04-01T09:31:20;99003.97;;;12.21;80.95
30708;BME280;17458;48.958;8.284;2023-04-01T09:38:44;98997.06;;;11.54;82.35
30708;BME280;17458;48.958;8.284;2023-04-01T09:44:34;99019.19;;;12.27;81.36
30708;BME280;17458;48.958;8.284;2023-04-01T09:51:05;99012.97;;;11.87;81.28
30708;BME280;17458;48.958;8.284;2023-04-01T09:54:03;99023.44;;;11.81;81.35
30708;BME280;17458;48.958;8.284;2023-04-01T10:07:06;99026.75;;;12.08;80.27
30708;BME280;17458;48.958;8.284;2023-04-01T10:10:06;99020.16;;;11.91;80.51
30708;BME280;17458;48.958;8.284;2023-04-01T10:16:11;99036.66;;;11.77;81.69
30708;BME280;17458;48.958;8.284;2023-04-01T10:35:01;99041.25;;;11.84;81.49
30708;BME280;17458;48.958;8.284;2023-04-01T10:41:40;99035.75;;;12.14;80.04
30708;BME280;17458;48.958;8.284;2023-04-01T11:09:09;99055.97;;;12.05;81.63
30708;BME280;17458;48.958;8.284;2023-04-01T11:12:27;99056.19;;;12.15;81.98
30708;BME280;17458;48.958;8.284;2023-04-01T11:37:11;99061.97;;;12.34;80.62
30708;BME280;17458;48.958;8.284;2023-04-01T11:40:41;99072.22;;;12.58;81.42
30708;BME280;17458;48.958;8.284;2023-04-01T11:51:08;99081.81;;;12.11;81.65
30708;BME280;17458;48.958;8.284;2023-04-01T11:56:57;99081.91;;;12.55;79.32
30708;BME280;17458;48.958;8.284;2023-04-01T12:06:16;99093.59;;;12.21;81.50
30708;BME280;17458;48.958;8.284;2023-04-01T12:12:35;99104.31;;;12.25;79.62
30708;BME280;17458;48.958;8.284;2023-04-01T12:18:46;99109.09;;;12.40;79.52
30708;BME280;17458;48.958;8.284;2023-04-01T12:21:38;99115.25;;;12.00;80.82
30708;BME280;17458;48.958;8.284;2023-04-01T12:24:45;99114.59;;;12.10;79.72
30708;BME280;17458;48.958;8.284;2023-04-01T12:30:51;99122.78;;;12.18;78.17
30708;BME280;17458;48.958;8.284;2023-04-01T12:34:19;99127.09;;;12.52;79.09
30708;BME280;17458;48.958;8.284;2023-04-01T12:40:40;99130.59;;;12.48;79.00
30708;BME280;17458;48.958;8.284;2023-04-01T12:43:51;99120.59;;;12.39;79.19
30708;BME280;17458;48.958;8.284;2023-04-01T12:46:57;99124.16;;;12.39;78.65
30708;BME280;17458;48.958;8.284;2023-04-01T12:56:00;99132.97;;;12.37;77.83
30708;BME280;17458;48.958;8.284;2023-04-01T13:02:07;99134.69;;;12.72;75.74
30708;BME280;17458;48.958;8.284;2023-04-01T13:11:08;99144.56;;;12.76;75.59
30708;BME280;17458;48.958;8.284;2023-04-01T13:33:25;99150.53;;;12.29;76.20
30708;BME280;17458;48.958;8.284;2023-04-01T13:42:37;99158.19;;;12.15;78.95
30708;BME280;17458;48.958;8.284;2023-04-01T13:46:34;99162.31;;;12.02;81.21
30708;BME280;17458;48.958;8.284;2023-04-01T13:52:59;99154.94;;;12.27;80.59
30708;BME280;17458;48.958;8.284;2023-04-01T14:01:35;99167.16;;;12.19;81.42
30708;BME280;17458;48.958;8.284;2023-04-01T14:04:37;99173.75;;;12.34;80.06
30708;BME280;17458;48.958;8.284;2023-04-01T14:07:40;99171.59;;;12.18;80.88
30708;BME280;17458;48.958;8.284;2023-04-01T14:10:43;99182.31;;;12.23;81.07
30708;BME280;17458;48.958;8.284;2023-04-01T14:20:02;99183.44;;;12.31;80.78
30708;BME280;17458;48.958;8.284;2023-04-01T14:26:24;99178.16;;;12.32;81.05
30708;BME280;17458;48.958;8.284;2023-04-01T14:29:32;99178.81;;;12.24;80.94
30708;BME280;17458;48.958;8.284;2023-04-01T14:41:38;99177.00;;;12.23;81.33
30708;BME280;17458;48.958;8.284;2023-04-01T14:50:14;99173.00;;;12.40;81.58
30708;BME280;17458;48.958;8.284;2023-04-01T14:55:55;99182.97;;;12.13;82.24
30708;BME280;17458;48.958;8.284;2023-04-01T14:58:46;99173.78;;;12.73;80.24
30708;BME280;17458;48.958;8.284;2023-04-01T15:01:45;99171.09;;;12.36;81.16
30708;BME280;17458;48.958;8.284;2023-04-01T15:04:50;99178.22;;;12.37;80.94
30708;BME280;17458;48.958;8.284;2023-04-01T15:10:58;99174.94;;;12.47;80.58
30708;BME280;17458;48.958;8.284;2023-04-01T15:14:36;99178.06;;;12.67;78.77
30708;BME280;17458;48.958;8.284;2023-04-01T15:18:18;99183.75;;;12.45;79.97
30708;BME280;17458;48.958;8.284;2023-04-01T15:24:15;99193.16;;;12.68;78.25
30708;BME280;17458;48.958;8.284;2023-04-01T15:30:30;99187.50;;;12.93;79.04
30708;BME280;17458;48.958;8.284;2023-04-01T15:43:11;99199.28;;;12.62;78.82
30708;BME280;17458;48.958;8.284;2023-04-01T15:45:58;99198.91;;;12.47;79.67
30708;BME280;17458;48.958;8.284;2023-04-01T15:51:54;99207.50;;;12.01;82.59
30708;BME280;17458;48.958;8.284;2023-04-01T15:55:13;99207.47;;;12.35;80.04
30708;BME280;17458;48.958;8.284;2023-04-01T15:58:37;99209.47;;;12.44;80.35
30708;BME280;17458;48.958;8.284;2023-04-01T16:01:59;99214.47;;;12.68;78.95
30708;BME280;17458;48.958;8.284;2023-04-01T16:05:00;99218.00;;;12.67;78.30
30708;BME280;17458;48.958;8.284;2023-04-01T16:14:18;99218.81;;;12.64;78.39
30708;BME280;17458;48.958;8.284;2023-04-01T16:17:13;99206.69;;;12.39;78.94
30708;BME280;17458;48.958;8.284;2023-04-01T16:22:58;99217.09;;;13.04;76.24
30708;BME280;17458;48.958;8.284;2023-04-01T16:25:49;99216.97;;;12.99;76.55
30708;BME280;17458;48.958;8.284;2023-04-01T16:28:55;99228.19;;;12.85;76.48
30708;BME280;17458;48.958;8.284;2023-04-01T16:31:50;99224.31;;;13.09;75.70
30708;BME280;17458;48.958;8.284;2023-04-01T16:34:45;99221.88;;;12.81;76.39
30708;BME280;17458;48.958;8.284;2023-04-01T16:37:46;99230.69;;;12.78;77.28
30708;BME280;17458;48.958;8.284;2023-04-01T16:40:46;99245.47;;;12.64;77.52
30708;BME280;17458;48.958;8.284;2023-04-01T16:43:46;99239.94;;;12.55;78.64
30708;BME280;17458;48.958;8.284;2023-04-01T16:46:36;99239.53;;;12.40;78.70
30708;BME280;17458;48.958;8.284;2023-04-01T16:49:30;99244.84;;;12.38;79.99
30708;BME280;17458;48.958;8.284;2023-04-01T16:52:30;99255.00;;;12.55;79.54
30708;BME280;17458;48.958;8.284;2023-04-01T16:55:15;99260.72;;;12.35;77.90
30708;BME280;17458;48.958;8.284;2023-04-01T16:58:01;99255.94;;;12.21;75.77
30708;BME280;17458;48.958;8.284;2023-04-01T17:00:51;99245.63;;;12.34;76.65
30708;BME280;17458;48.958;8.284;2023-04-01T17:03:43;99265.44;;;12.46;76.46
30708;BME280;17458;48.958;8.284;2023-04-01T17:12:47;99272.50;;;12.81;74.46
30708;BME280;17458;48.958;8.284;2023-04-01T17:22:24;99286.97;;;12.92;74.81
30708;BME280;17458;48.958;8.284;2023-04-01T17:28:52;99288.59;;;12.86;74.72
30708;BME280;17458;48.958;8.284;2023-04-01T17:35:16;99285.91;;;12.84;74.64
30708;BME280;17458;48.958;8.284;2023-04-01T17:41:27;99301.38;;;12.64;74.82
30708;BME280;17458;48.958;8.284;2023-04-01T17:47:43;99297.22;;;12.74;76.01
30708;BME280;17458;48.958;8.284;2023-04-01T17:50:48;99304.97;;;12.65;76.11
30708;BME280;17458;48.958;8.284;2023-04-01T17:59:38;99312.25;;;12.37;76.28
30708;BME280;17458;48.958;8.284;2023-04-01T18:11:47;99318.44;;;12.03;76.36
30708;BME280;17458;48.958;8.284;2023-04-01T18:15:10;99328.38;;;11.49;78.49
30708;BME280;17458;48.958;8.284;2023-04-01T18:18:35;99327.34;;;11.74;78.01
30708;BME280;17458;48.958;8.284;2023-04-01T18:24:40;99335.19;;;11.99;76.33
30708;BME280;17458;48.958;8.284;2023-04-01T18:27:39;99330.72;;;11.68;77.29
30708;BME280;17458;48.958;8.284;2023-04-01T18:30:30;99328.44;;;11.51;78.07
30708;BME280;17458;48.958;8.284;2023-04-01T18:33:17;99333.25;;;11.34;78.58
30708;BME280;17458;48.958;8.284;2023-04-01T18:41:53;99337.13;;;11.75;76.37
30708;BME280;17458;48.958;8.284;2023-04-01T18:44:56;99339.94;;;11.51;77.93
30708;BME280;17458;48.958;8.284;2023-04-01T18:47:55;99339.44;;;11.34;78.84
30708;BME280;17458;48.958;8.284;2023-04-01T18:50:52;99349.81;;;11.55;77.81
30708;BME280;17458;48.958;8.284;2023-04-01T18:53:46;99346.09;;;11.20;79.09
30708;BME280;17458;48.958;8.284;2023-04-01T18:56:35;99348.69;;;10.90;80.01
30708;BME280;17458;48.958;8.284;2023-04-01T18:59:46;99346.25;;;10.98;80.00
30708;BME280;17458;48.958;8.284;2023-04-01T19:02:39;99360.09;;;11.15;78.78
30708;BME280;17458;48.958;8.284;2023-04-01T19:05:34;99361.34;;;10.99;79.59
30708;BME280;17458;48.958;8.284;2023-04-01T19:08:38;99365.16;;;11.07;79.77
30708;BME280;17458;48.958;8.284;2023-04-01T19:14:23;99370.81;;;11.18;78.39
30708;BME280;17458;48.958;8.284;2023-04-01T19:20:47;99379.59;;;11.44;77.74
30708;BME280;17458;48.958;8.284;2023-04-01T19:27:29;99386.03;;;11.52;77.15
30708;BME280;17458;48.958;8.284;2023-04-01T19:36:41;99402.19;;;11.58;76.98
30708;BME280;17458;48.958;8.284;2023-04-01T19:40:02;99410.16;;;11.58;76.72
30708;BME280;17458;48.958;8.284;2023-04-01T19:43:02;99414.59;;;11.57;76.35
30708;BME280;17458;48.958;8.284;2023-04-01T19:45:57;99409.78;;;11.74;75.94
30708;BME280;17458;48.958;8.284;2023-04-01T19:51:38;99422.84;;;11.95;75.08
30708;BME280;17458;48.958;8.284;2023-04-01T19:54:33;99418.78;;;12.07;74.73
30708;BME280;17458;48.958;8.284;2023-04-01T20:00:18;99426.53;;;11.71;76.26
30708;BME280;17458;48.958;8.284;2023-04-01T20:18:20;99441.00;;;12.10;75.67
30708;BME280;17458;48.958;8.284;2023-04-01T20:21:20;99447.03;;;11.74;76.83
30708;BME280;17458;48.958;8.284;2023-04-01T20:24:16;99460.63;;;11.83;77.17
30708;BME280;17458;48.958;8.284;2023-04-01T20:33:05;99455.19;;;11.80;75.88
30708;BME280;17458;48.958;8.284;2023-04-01T20:42:15;99464.09;;;11.81;74.75
30708;BME280;17458;48.958;8.284;2023-04-01T20:50:51;99468.16;;;12.28;73.59
30708;BME280;17458;48.958;8.284;2023-04-01T20:54:11;99470.38;;;12.13;73.66
30708;BME280;17458;48.958;8.284;2023-04-01T20:57:25;99479.91;;;12.04;74.04
30708;BME280;17458;48.958;8.284;2023-04-01T21:03:41;99478.16;;;12.05;74.79
30708;BME280;17458;48.958;8.284;2023-04-01T21:06:47;99478.97;;;12.02;74.20
30708;BME280;17458;48.958;8.284;2023-04-01T21:09:55;99487.31;;;12.15;75.08
30708;BME280;17458;48.958;8.284;2023-04-01T21:37:40;99511.66;;;11.71;74.29
30708;BME280;17458;48.958;8.284;2023-04-01T21:40:40;99504.34;;;11.91;73.86
30708;BME280;17458;48.958;8.284;2023-04-01T21:52:45;99516.91;;;11.97;73.18
30708;BME280;17458;48.958;8.284;2023-04-01T22:02:34;99521.16;;;11.90;73.30
30708;BME280;17458;48.958;8.284;2023-04-01T22:08:29;99527.34;;;11.89;73.42
30708;BME280;17458;48.958;8.284;2023-04-01T22:14:10;99535.25;;;11.88;72.71
30708;BME280;17458;48.958;8.284;2023-04-01T22:16:58;99537.06;;;11.62;73.60
30708;BME280;17458;48.958;8.284;2023-04-01T22:19:57;99531.81;;;11.90;73.09
30708;BME280;17458;48.958;8.284;2023-04-01T22:26:32;99542.16;;;11.56;73.57
30708;BME280;17458;48.958;8.284;2023-04-01T22:36:17;99547.94;;;11.69;73.56
30708;BME280;17458;48.958;8.284;2023-04-01T22:42:31;99543.34;;;11.65;73.78
30708;BME280;17458;48.958;8.284;2023-04-01T22:48:40;99544.00;;;11.84;73.24
30708;BME280;17458;48.958;8.284;2023-04-01T22:51:49;99548.22;;;11.77;73.41
30708;BME280;17458;48.958;8.284;2023-04-01T22:54:44;99545.22;;;11.95;73.00
30708;BME280;17458;48.958;8.284;2023-04-01T23:00:22;99553.69;;;12.10;71.74
30708;BME280;17458;48.958;8.284;2023-04-01T23:06:03;99558.41;;;11.90;72.54
30708;BME280;17458;48.958;8.284;2023-04-01T23:12:13;99562.94;;;11.94;72.34
30708;BME280;17458;48.958;8.284;2023-04-01T23:15:01;99573.31;;;11.85;72.55
30708;BME280;17458;48.958;8.284;2023-04-01T23:21:15;99583.91;;;11.84;72.47
30708;BME280;17458;48.958;8.284;2023-04-01T23:24:44;99585.53;;;11.80;73.31
30708;BME280;17458;48.958;8.284;2023-04-01T23:27:37;99591.94;;;11.85;73.77
30708;BME280;17458;48.958;8.284;2023-04-01T23:33:26;99601.69;;;11.34;76.67
30708;BME280;17458;48.958;8.284;2023-04-01T23:36:13;99596.38;;;11.09;78.08
30708;BME280;17458;48.958;8.284;2023-04-01T23:39:02;99609.44;;;11.53;77.24
30708;BME280;17458;48.958;8.284;2023-04-01T23:41:47;99612.22;;;11.31;78.13
30708;BME280;17458;48.958;8.284;2023-04-01T23:44:32;99614.31;;;11.66;76.84